Time;durP1;ratioP1;P1;durP2;ratioP2;P2;SDS_P1;SDS_P2;PMS_P1;PMS_P2;Temp;Humidity;BMP_temperature;BMP_pressure;BME280_temperature;BME280_humidity;BME280_pressure;Samples;Min_cycle;Max_cycle;Signal;HPM_P1;HPM_P2
2022/03/12 00:00:56;;;;;;;1.10;0.60;;;;;;;;;;5033190;28;20017;-76
2022/03/12 00:03:23;;;;;;;0.68;0.60;;;;;;;;;;5029555;28;20471;-76
2022/03/12 00:05:54;;;;;;;0.68;0.60;;;;;;;;;;5031948;28;20402;-76
2022/03/12 00:08:40;;;;;;;1.33;0.60;;;;;;;;;;5031800;28;20029;-76
2022/03/12 00:11:07;;;;;;;0.63;0.63;;;;;;;;;;5031779;28;20396;-75
2022/03/12 00:13:34;;;;;;;0.60;0.60;;;;;;;;;;5033460;28;20029;-75
2022/03/12 00:16:00;;;;;;;0.82;0.82;;;;;;;;;;5033076;28;20043;-76
2022/03/12 00:18:31;;;;;;;1.25;0.70;;;;;;;;;;5031320;28;20043;-76
2022/03/12 00:21:01;;;;;;;0.55;0.55;;;;;;;;;;5030487;28;20025;-76
2022/03/12 00:23:30;;;;;;;0.47;0.43;;;;;;;;;;5034833;28;20028;-76
2022/03/12 00:25:56;;;;;;;0.60;0.50;;;;;;;;;;5032649;28;20417;-76
2022/03/12 00:28:23;;;;;;;0.73;0.60;;;;;;;;;;5032100;28;20032;-76
2022/03/12 00:30:51;;;;;;;0.70;0.70;;;;;;;;;;5032817;28;20070;-76
2022/03/12 00:33:18;;;;;;;0.50;0.50;;;;;;;;;;5029744;28;20033;-76
2022/03/12 00:35:49;;;;;;;0.40;0.40;;;;;;;;;;5032800;28;20380;-76
2022/03/12 00:38:16;;;;;;;1.13;0.88;;;;;;;;;;5036268;28;20033;-76
2022/03/12 00:40:43;;;;;;;0.85;0.80;;;;;;;;;;5040151;28;20057;-76
2022/03/12 00:43:10;;;;;;;0.50;0.50;;;;;;;;;;5041740;28;20075;-76
2022/03/12 00:45:37;;;;;;;0.77;0.52;;;;;;;;;;5033144;28;20029;-76
2022/03/12 00:48:06;;;;;;;0.63;0.60;;;;;;;;;;5032662;28;20506;-76
2022/03/12 00:50:32;;;;;;;0.90;0.55;;;;;;;;;;5038177;28;20046;-75
2022/03/12 00:52:59;;;;;;;0.65;0.60;;;;;;;;;;5036378;28;20419;-75
2022/03/12 00:55:25;;;;;;;0.63;0.60;;;;;;;;;;5036166;28;20495;-76
2022/03/12 00:57:51;;;;;;;0.63;0.60;;;;;;;;;;5036435;28;20039;-76
2022/03/12 01:00:20;;;;;;;0.65;0.47;;;;;;;;;;5033345;28;20033;-76
2022/03/12 01:02:47;;;;;;;0.52;0.40;;;;;;;;;;5035864;28;20479;-75
2022/03/12 01:05:15;;;;;;;1.10;0.70;;;;;;;;;;5037246;28;20034;-76
2022/03/12 01:07:41;;;;;;;0.73;0.68;;;;;;;;;;5035823;28;20034;-76
2022/03/12 01:10:08;;;;;;;0.47;0.47;;;;;;;;;;5035849;28;20556;-76
2022/03/12 01:12:35;;;;;;;1.98;0.90;;;;;;;;;;5035054;28;20478;-76
2022/03/12 01:15:01;;;;;;;0.50;0.50;;;;;;;;;;5032336;28;20518;-76
2022/03/12 01:17:28;;;;;;;1.27;0.80;;;;;;;;;;5037853;28;20021;-76
2022/03/12 01:19:54;;;;;;;1.35;0.80;;;;;;;;;;5036142;28;20018;-76
2022/03/12 01:22:20;;;;;;;0.75;0.60;;;;;;;;;;5034190;28;20040;-76
2022/03/12 01:24:47;;;;;;;1.00;0.80;;;;;;;;;;5034637;28;20047;-76
2022/03/12 01:27:15;;;;;;;0.70;0.65;;;;;;;;;;5032178;28;20040;-76
2022/03/12 01:29:42;;;;;;;1.05;0.93;;;;;;;;;;5036455;28;20042;-76
2022/03/12 01:32:09;;;;;;;0.85;0.80;;;;;;;;;;5034897;28;20029;-76
2022/03/12 01:34:35;;;;;;;1.02;0.93;;;;;;;;;;5035472;28;20028;-76
2022/03/12 01:37:02;;;;;;;0.70;0.70;;;;;;;;;;5035342;28;20035;-76
2022/03/12 01:39:28;;;;;;;0.98;0.88;;;;;;;;;;5031267;28;20029;-76
2022/03/12 01:41:55;;;;;;;1.00;0.90;;;;;;;;;;5047154;28;20106;-76
2022/03/12 01:44:22;;;;;;;0.98;0.77;;;;;;;;;;5037634;28;20038;-76
2022/03/12 01:46:49;;;;;;;1.08;0.98;;;;;;;;;;5035360;28;20512;-76
2022/03/12 01:49:20;;;;;;;1.10;0.82;;;;;;;;;;5034723;28;20044;-76
2022/03/12 01:51:48;;;;;;;1.23;1.10;;;;;;;;;;5035239;28;20071;-76
2022/03/12 01:54:22;;;;;;;1.65;1.10;;;;;;;;;;5030441;28;20021;-76
2022/03/12 01:56:48;;;;;;;1.20;1.10;;;;;;;;;;5033145;28;20029;-76
2022/03/12 01:59:15;;;;;;;1.92;1.17;;;;;;;;;;5036477;28;20034;-75
2022/03/12 02:01:42;;;;;;;1.45;1.10;;;;;;;;;;5032245;28;20525;-75
2022/03/12 02:04:09;;;;;;;1.60;1.15;;;;;;;;;;5033603;28;20425;-76
2022/03/12 02:06:42;;;;;;;1.30;1.20;;;;;;;;;;5034072;28;20009;-76
2022/03/12 02:09:10;;;;;;;1.83;1.30;;;;;;;;;;5014851;28;20494;-76
2022/03/12 02:11:39;;;;;;;1.70;1.00;;;;;;;;;;5036861;28;20041;-76
2022/03/12 02:14:09;;;;;;;1.30;1.15;;;;;;;;;;5035370;28;20033;-76
2022/03/12 02:16:36;;;;;;;1.33;0.95;;;;;;;;;;5033728;28;20022;-76
2022/03/12 02:19:03;;;;;;;1.15;1.00;;;;;;;;;;5035289;28;20045;-76
2022/03/12 02:21:44;;;;;;;1.65;1.20;;;;;;;;;;5033156;28;20732;-76
2022/03/12 02:24:12;;;;;;;1.77;1.20;;;;;;;;;;5014863;28;20038;-76
2022/03/12 02:26:42;;;;;;;1.38;1.27;;;;;;;;;;5036378;28;20033;-76
2022/03/12 02:29:11;;;;;;;0.98;0.98;;;;;;;;;;5033679;28;20053;-76
2022/03/12 02:31:38;;;;;;;1.30;1.08;;;;;;;;;;5034555;28;20025;-76
2022/03/12 02:34:06;;;;;;;1.20;1.10;;;;;;;;;;5034642;28;20041;-76
2022/03/12 02:36:33;;;;;;;1.38;1.10;;;;;;;;;;5031744;28;20028;-76
2022/03/12 02:39:05;;;;;;;2.22;1.30;;;;;;;;;;5030940;28;20056;-76
2022/03/12 02:41:31;;;;;;;2.42;1.17;;;;;;;;;;5046215;28;20067;-76
2022/03/12 02:43:58;;;;;;;1.65;1.35;;;;;;;;;;5032273;28;20394;-76
2022/03/12 02:46:31;;;;;;;1.75;1.33;;;;;;;;;;5034511;28;20021;-76
2022/03/12 02:48:58;;;;;;;1.77;1.33;;;;;;;;;;5034284;28;20029;-76
2022/03/12 02:51:26;;;;;;;2.08;1.63;;;;;;;;;;5031261;28;20553;-76
2022/03/12 02:53:56;;;;;;;2.22;1.40;;;;;;;;;;5063861;28;20529;-76
2022/03/12 02:56:26;;;;;;;2.28;1.65;;;;;;;;;;5034702;28;20414;-76
2022/03/12 02:58:53;;;;;;;1.70;1.58;;;;;;;;;;5033077;28;20063;-76
2022/03/12 03:01:20;;;;;;;2.85;1.95;;;;;;;;;;5033380;28;20402;-76
2022/03/12 03:03:47;;;;;;;2.15;1.83;;;;;;;;;;5033598;28;20028;-75
2022/03/12 03:06:14;;;;;;;3.50;2.20;;;;;;;;;;5030264;28;20506;-76
2022/03/12 03:08:41;;;;;;;3.28;2.03;;;;;;;;;;5034388;28;20031;-76
2022/03/12 03:11:16;;;;;;;2.05;1.77;;;;;;;;;;5033393;28;20441;-76
2022/03/12 03:13:44;;;;;;;2.63;2.00;;;;;;;;;;5034079;28;20402;-75
2022/03/12 03:16:19;;;;;;;2.00;1.80;;;;;;;;;;5033888;28;20035;-75
2022/03/12 03:18:50;;;;;;;3.50;1.80;;;;;;;;;;5030723;28;20023;-75
2022/03/12 03:21:18;;;;;;;2.50;2.13;;;;;;;;;;5029106;28;20036;-75
2022/03/12 03:23:45;;;;;;;2.10;1.90;;;;;;;;;;5033767;28;20398;-75
2022/03/12 03:26:11;;;;;;;2.42;1.95;;;;;;;;;;5034546;28;20039;-75
2022/03/12 03:28:38;;;;;;;3.78;2.35;;;;;;;;;;5033416;28;20410;-75
2022/03/12 03:31:07;;;;;;;3.92;2.10;;;;;;;;;;5033526;28;20036;-76
2022/03/12 03:33:34;;;;;;;3.33;2.50;;;;;;;;;;5032565;28;20021;-75
2022/03/12 03:36:01;;;;;;;2.08;1.88;;;;;;;;;;5029649;28;20013;-75
2022/03/12 03:38:27;;;;;;;2.83;2.03;;;;;;;;;;5035316;28;20029;-75
2022/03/12 03:40:54;;;;;;;3.88;2.20;;;;;;;;;;5039054;28;20051;-75
2022/03/12 03:43:22;;;;;;;2.47;2.00;;;;;;;;;;5039177;28;20024;-75
2022/03/12 03:45:57;;;;;;;2.60;2.13;;;;;;;;;;5033438;28;20021;-75
2022/03/12 03:48:25;;;;;;;2.50;1.98;;;;;;;;;;5030705;28;20401;-75
2022/03/12 03:50:52;;;;;;;2.10;1.90;;;;;;;;;;5031002;28;20041;-75
2022/03/12 03:53:20;;;;;;;2.50;2.15;;;;;;;;;;5033404;28;20033;-75
2022/03/12 03:55:47;;;;;;;2.88;2.00;;;;;;;;;;5033350;28;20017;-74
2022/03/12 03:58:14;;;;;;;3.05;1.83;;;;;;;;;;5031918;28;20029;-75
2022/03/12 04:00:45;;;;;;;6.05;2.30;;;;;;;;;;5031746;28;20021;-74
2022/03/12 04:03:12;;;;;;;3.83;2.03;;;;;;;;;;5012519;28;20040;-74
2022/03/12 04:05:39;;;;;;;2.00;1.58;;;;;;;;;;5034960;28;20032;-75
2022/03/12 04:08:07;;;;;;;6.10;1.83;;;;;;;;;;5033757;28;20513;-74
2022/03/12 04:10:34;;;;;;;1.70;1.50;;;;;;;;;;5033010;28;20030;-75
2022/03/12 04:13:01;;;;;;;2.42;1.40;;;;;;;;;;5036698;28;20029;-73
2022/03/12 04:15:28;;;;;;;2.45;1.80;;;;;;;;;;5035207;28;20034;-74
2022/03/12 04:17:57;;;;;;;1.60;1.50;;;;;;;;;;5033885;28;20021;-74
2022/03/12 04:20:23;;;;;;;2.08;1.63;;;;;;;;;;5039055;28;20013;-74
2022/03/12 04:22:51;;;;;;;6.10;1.77;;;;;;;;;;5037335;28;20034;-74
2022/03/12 04:25:18;;;;;;;3.55;1.50;;;;;;;;;;5036837;28;20037;-73
2022/03/12 04:27:44;;;;;;;2.78;1.85;;;;;;;;;;5036943;28;20021;-74
2022/03/12 04:30:12;;;;;;;4.88;1.67;;;;;;;;;;5032573;28;20152;-74
2022/03/12 04:32:39;;;;;;;3.50;1.67;;;;;;;;;;5036461;28;20386;-74
2022/03/12 04:35:06;;;;;;;2.08;1.40;;;;;;;;;;5037579;28;20033;-74
2022/03/12 04:37:34;;;;;;;1.90;1.60;;;;;;;;;;5035245;28;20028;-74
2022/03/12 04:40:02;;;;;;;3.88;1.73;;;;;;;;;;5033461;28;20039;-74
2022/03/12 04:42:29;;;;;;;2.20;1.70;;;;;;;;;;5048137;28;20025;-74
2022/03/12 04:44:55;;;;;;;4.05;1.83;;;;;;;;;;5034141;28;20034;-74
2022/03/12 04:47:22;;;;;;;2.60;1.90;;;;;;;;;;5038093;28;20032;-73
2022/03/12 04:49:48;;;;;;;1.73;1.52;;;;;;;;;;5036587;28;20059;-74
2022/03/12 04:52:18;;;;;;;2.38;1.88;;;;;;;;;;5036185;28;20045;-74
2022/03/12 04:54:44;;;;;;;1.48;1.30;;;;;;;;;;5036630;28;20029;-73
2022/03/12 04:57:11;;;;;;;2.95;1.42;;;;;;;;;;5032255;28;20450;-74
2022/03/12 04:59:37;;;;;;;1.50;1.40;;;;;;;;;;5037688;28;20030;-73
2022/03/12 05:02:05;;;;;;;2.17;1.98;;;;;;;;;;5035041;28;20486;-74
2022/03/12 05:04:31;;;;;;;2.03;1.50;;;;;;;;;;5036103;28;20029;-74
2022/03/12 05:06:58;;;;;;;1.35;1.25;;;;;;;;;;5036239;28;20039;-74
2022/03/12 05:09:24;;;;;;;2.88;1.45;;;;;;;;;;5033576;28;20044;-73
2022/03/12 05:11:50;;;;;;;2.30;1.42;;;;;;;;;;5034759;28;20090;-73
2022/03/12 05:14:17;;;;;;;1.92;1.70;;;;;;;;;;5037413;28;20032;-73
2022/03/12 05:16:45;;;;;;;2.85;1.50;;;;;;;;;;5033516;28;20367;-74
2022/03/12 05:19:15;;;;;;;2.70;1.85;;;;;;;;;;5034639;28;20022;-73
2022/03/12 05:21:41;;;;;;;2.17;1.70;;;;;;;;;;5036210;28;20036;-74
2022/03/12 05:24:09;;;;;;;2.55;1.67;;;;;;;;;;5031098;28;20402;-74
2022/03/12 05:26:35;;;;;;;2.95;1.65;;;;;;;;;;5049116;28;20039;-74
2022/03/12 05:29:01;;;;;;;2.15;1.70;;;;;;;;;;5035706;28;20034;-74
2022/03/12 05:31:28;;;;;;;2.53;1.80;;;;;;;;;;5035740;28;20586;-73
2022/03/12 05:33:54;;;;;;;3.40;2.03;;;;;;;;;;5035689;28;20029;-74
2022/03/12 05:36:20;;;;;;;2.80;1.90;;;;;;;;;;5032817;28;20390;-74
2022/03/12 05:38:47;;;;;;;2.53;2.08;;;;;;;;;;5035274;28;20029;-73
2022/03/12 05:41:14;;;;;;;2.17;1.80;;;;;;;;;;5044925;28;20064;-74
2022/03/12 05:43:47;;;;;;;2.67;1.90;;;;;;;;;;5038364;28;20032;-73
2022/03/12 05:46:15;;;;;;;2.55;1.92;;;;;;;;;;5035605;28;20036;-73
2022/03/12 05:48:42;;;;;;;2.75;2.10;;;;;;;;;;5035433;28;20450;-73
2022/03/12 05:51:09;;;;;;;2.50;2.05;;;;;;;;;;5015549;28;20028;-73
2022/03/12 05:53:36;;;;;;;3.58;2.00;;;;;;;;;;5048802;28;20037;-73
2022/03/12 05:56:04;;;;;;;2.33;2.05;;;;;;;;;;5034084;28;20059;-73
2022/03/12 05:58:38;;;;;;;2.85;2.42;;;;;;;;;;5033581;28;20021;-74
2022/03/12 06:01:05;;;;;;;4.00;2.58;;;;;;;;;;5035529;28;20022;-73
2022/03/12 06:03:31;;;;;;;2.95;2.22;;;;;;;;;;5033986;28;20024;-74
2022/03/12 06:05:58;;;;;;;4.78;2.40;;;;;;;;;;5031933;28;20434;-73
2022/03/12 06:08:26;;;;;;;3.38;2.70;;;;;;;;;;5037200;28;20028;-74
2022/03/12 06:10:57;;;;;;;2.97;2.38;;;;;;;;;;5034810;28;20037;-74
2022/03/12 06:13:25;;;;;;;3.40;2.72;;;;;;;;;;5034690;28;20029;-73
2022/03/12 06:15:58;;;;;;;3.92;2.35;;;;;;;;;;5034839;28;20036;-74
2022/03/12 06:18:26;;;;;;;3.50;2.75;;;;;;;;;;5032714;28;20033;-74
2022/03/12 06:20:53;;;;;;;4.22;2.60;;;;;;;;;;5032663;28;20032;-73
2022/03/12 06:23:19;;;;;;;5.35;2.38;;;;;;;;;;5034596;28;20033;-73
2022/03/12 06:25:46;;;;;;;3.10;2.13;;;;;;;;;;5034929;28;20029;-74
2022/03/12 06:28:12;;;;;;;3.08;2.50;;;;;;;;;;5034444;28;20479;-74
2022/03/12 06:30:41;;;;;;;2.92;2.30;;;;;;;;;;5034224;28;20099;-73
2022/03/12 06:33:07;;;;;;;3.67;2.38;;;;;;;;;;5013896;28;20024;-73
2022/03/12 06:35:34;;;;;;;5.18;2.58;;;;;;;;;;5035598;28;20059;-73
2022/03/12 06:38:00;;;;;;;3.03;2.40;;;;;;;;;;5033065;28;20013;-73
2022/03/12 06:40:28;;;;;;;2.92;2.40;;;;;;;;;;5036028;28;20045;-73
2022/03/12 06:42:56;;;;;;;3.38;2.67;;;;;;;;;;5043946;28;20485;-74
2022/03/12 06:45:26;;;;;;;2.95;2.15;;;;;;;;;;5031955;28;20595;-73
2022/03/12 06:47:53;;;;;;;2.53;2.20;;;;;;;;;;5032306;28;20029;-74
2022/03/12 06:50:23;;;;;;;2.35;1.75;;;;;;;;;;5033935;28;20037;-73
2022/03/12 06:52:50;;;;;;;2.67;2.20;;;;;;;;;;5034151;28;20021;-74
2022/03/12 06:55:18;;;;;;;3.33;2.25;;;;;;;;;;5034327;28;20083;-73
2022/03/12 06:57:46;;;;;;;2.80;1.60;;;;;;;;;;5033915;28;20036;-74
2022/03/12 07:00:14;;;;;;;1.95;1.80;;;;;;;;;;5030029;28;20107;-74
2022/03/12 07:02:41;;;;;;;2.35;1.70;;;;;;;;;;5034689;28;20512;-73
2022/03/12 07:05:07;;;;;;;1.77;1.67;;;;;;;;;;5033136;28;20540;-74
2022/03/12 07:07:34;;;;;;;2.28;1.70;;;;;;;;;;5034018;28;20517;-73
2022/03/12 07:10:00;;;;;;;1.48;1.33;;;;;;;;;;5033807;28;20024;-73
2022/03/12 07:12:27;;;;;;;2.10;1.63;;;;;;;;;;5030485;28;20018;-74
2022/03/12 07:14:53;;;;;;;3.90;1.70;;;;;;;;;;5032155;28;20025;-74
2022/03/12 07:17:20;;;;;;;2.63;1.85;;;;;;;;;;5033736;28;20022;-74
2022/03/12 07:19:46;;;;;;;2.83;1.90;;;;;;;;;;5033812;28;20017;-74
2022/03/12 07:22:13;;;;;;;1.70;1.50;;;;;;;;;;5033800;28;20021;-74
2022/03/12 07:24:40;;;;;;;1.45;1.35;;;;;;;;;;5033119;28;20032;-73
2022/03/12 07:27:07;;;;;;;1.70;1.40;;;;;;;;;;5029325;28;20038;-74
2022/03/12 07:29:34;;;;;;;1.20;1.10;;;;;;;;;;5035307;28;20040;-74
2022/03/12 07:32:00;;;;;;;1.58;1.30;;;;;;;;;;5033839;28;20025;-74
2022/03/12 07:34:27;;;;;;;1.70;1.45;;;;;;;;;;5033689;28;20034;-74
2022/03/12 07:36:54;;;;;;;2.03;1.30;;;;;;;;;;5033933;28;20017;-74
2022/03/12 07:39:20;;;;;;;1.85;1.58;;;;;;;;;;5029111;28;20021;-74
2022/03/12 07:41:47;;;;;;;1.73;1.23;;;;;;;;;;5046418;28;20513;-74
2022/03/12 07:44:13;;;;;;;1.80;1.50;;;;;;;;;;5034329;28;20041;-74
2022/03/12 07:46:40;;;;;;;1.98;1.25;;;;;;;;;;5031950;28;20038;-74
2022/03/12 07:49:06;;;;;;;1.73;1.35;;;;;;;;;;5032014;28;20394;-74
2022/03/12 07:51:33;;;;;;;2.03;1.20;;;;;;;;;;5030439;28;20035;-74
2022/03/12 07:54:00;;;;;;;1.35;1.25;;;;;;;;;;5030037;28;20107;-74
2022/03/12 07:56:27;;;;;;;1.65;1.20;;;;;;;;;;5033249;28;20029;-74
2022/03/12 07:58:55;;;;;;;1.50;1.30;;;;;;;;;;5033302;28;20028;-74
2022/03/12 08:01:22;;;;;;;2.28;1.42;;;;;;;;;;5033241;28;20041;-74
2022/03/12 08:03:48;;;;;;;2.33;1.27;;;;;;;;;;5033526;28;20025;-74
2022/03/12 08:06:19;;;;;;;1.30;1.10;;;;;;;;;;5029605;28;20028;-74
2022/03/12 08:08:45;;;;;;;1.92;1.40;;;;;;;;;;5032909;28;20025;-74
2022/03/12 08:11:31;;;;;;;1.35;1.25;;;;;;;;;;5033990;28;20045;-74
2022/03/12 08:14:02;;;;;;;1.45;1.30;;;;;;;;;;5033541;28;20029;-74
2022/03/12 08:16:29;;;;;;;1.42;1.33;;;;;;;;;;5032982;28;20029;-74
2022/03/12 08:18:56;;;;;;;1.48;1.38;;;;;;;;;;5032891;28;20021;-74
2022/03/12 08:21:22;;;;;;;1.23;1.08;;;;;;;;;;5030764;28;20034;-75
2022/03/12 08:23:49;;;;;;;0.90;0.90;;;;;;;;;;5031120;28;20038;-75
2022/03/12 08:26:16;;;;;;;1.25;1.13;;;;;;;;;;5034372;28;20443;-74
2022/03/12 08:28:43;;;;;;;1.38;1.25;;;;;;;;;;5031758;28;20051;-75
2022/03/12 08:31:09;;;;;;;0.93;0.90;;;;;;;;;;5031568;28;20060;-74
2022/03/12 08:33:37;;;;;;;1.00;0.93;;;;;;;;;;5030641;28;20029;-74
2022/03/12 08:36:05;;;;;;;0.80;0.80;;;;;;;;;;5029694;28;20036;-74
2022/03/12 08:38:32;;;;;;;1.00;0.90;;;;;;;;;;5034625;28;20495;-75
2022/03/12 08:40:59;;;;;;;1.08;0.70;;;;;;;;;;5038759;28;20551;-74
2022/03/12 08:43:25;;;;;;;0.80;0.80;;;;;;;;;;5038365;28;20043;-74
2022/03/12 08:45:51;;;;;;;0.70;0.70;;;;;;;;;;5032902;28;20025;-75
2022/03/12 08:48:18;;;;;;;0.80;0.80;;;;;;;;;;5029573;28;20074;-75
2022/03/12 08:50:45;;;;;;;1.63;0.77;;;;;;;;;;5032564;28;20405;-75
2022/03/12 08:53:12;;;;;;;2.60;0.90;;;;;;;;;;5033157;28;20503;-74
2022/03/12 08:55:38;;;;;;;0.60;0.55;;;;;;;;;;5033018;28;20354;-75
2022/03/12 08:58:05;;;;;;;0.70;0.68;;;;;;;;;;5033320;28;20028;-75
2022/03/12 09:00:31;;;;;;;0.73;0.70;;;;;;;;;;5035027;28;20490;-74
2022/03/12 09:02:58;;;;;;;0.60;0.60;;;;;;;;;;5033574;28;20033;-75
2022/03/12 09:05:25;;;;;;;0.80;0.80;;;;;;;;;;5038501;28;20032;-75
2022/03/12 09:07:52;;;;;;;1.05;0.65;;;;;;;;;;5035897;28;20033;-75
2022/03/12 09:10:19;;;;;;;0.60;0.60;;;;;;;;;;5034544;28;20394;-75
2022/03/12 09:12:46;;;;;;;1.15;0.80;;;;;;;;;;5034688;28;20066;-75
2022/03/12 09:15:13;;;;;;;1.00;0.70;;;;;;;;;;5032136;28;20040;-74
2022/03/12 09:17:40;;;;;;;0.70;0.70;;;;;;;;;;5037205;28;20033;-75
2022/03/12 09:20:08;;;;;;;0.50;0.50;;;;;;;;;;5036255;28;20040;-75
2022/03/12 09:22:35;;;;;;;0.47;0.40;;;;;;;;;;5036010;28;20028;-74
2022/03/12 09:25:02;;;;;;;1.10;0.70;;;;;;;;;;5036406;28;20029;-75
2022/03/12 09:27:29;;;;;;;0.60;0.60;;;;;;;;;;5034078;28;20036;-74
2022/03/12 09:29:55;;;;;;;0.88;0.70;;;;;;;;;;5032904;28;20041;-75
2022/03/12 09:32:22;;;;;;;0.60;0.60;;;;;;;;;;5036903;28;20030;-75
2022/03/12 09:34:49;;;;;;;2.28;0.60;;;;;;;;;;5035952;28;20053;-74
2022/03/12 09:37:15;;;;;;;0.73;0.65;;;;;;;;;;5035248;28;20025;-75
2022/03/12 09:39:41;;;;;;;0.80;0.80;;;;;;;;;;5031101;28;20017;-74
2022/03/12 09:42:09;;;;;;;0.80;0.60;;;;;;;;;;5015261;28;20064;-74
2022/03/12 09:44:35;;;;;;;1.27;0.80;;;;;;;;;;5037391;28;20021;-75
2022/03/12 09:47:01;;;;;;;0.75;0.73;;;;;;;;;;5035642;28;20036;-74
2022/03/12 09:49:28;;;;;;;1.00;0.90;;;;;;;;;;5033936;28;20029;-74
2022/03/12 09:51:57;;;;;;;1.13;0.80;;;;;;;;;;5033474;28;20498;-74
2022/03/12 09:54:23;;;;;;;0.90;0.90;;;;;;;;;;5031479;28;20025;-74
2022/03/12 09:56:50;;;;;;;0.90;0.90;;;;;;;;;;5034285;28;20030;-74
2022/03/12 09:59:16;;;;;;;0.82;0.82;;;;;;;;;;5035823;28;20021;-74
2022/03/12 10:01:43;;;;;;;3.13;0.80;;;;;;;;;;5035282;28;20016;-74
2022/03/12 10:04:09;;;;;;;1.23;1.10;;;;;;;;;;5034731;28;20405;-73
2022/03/12 10:06:35;;;;;;;1.63;1.20;;;;;;;;;;5034088;28;20024;-75
2022/03/12 10:09:04;;;;;;;1.55;1.40;;;;;;;;;;5031248;28;20032;-74
2022/03/12 10:11:31;;;;;;;3.65;1.02;;;;;;;;;;5037279;28;20063;-74
2022/03/12 10:13:57;;;;;;;1.83;1.35;;;;;;;;;;5035210;28;20021;-74
2022/03/12 10:16:25;;;;;;;1.98;1.30;;;;;;;;;;5034952;28;20030;-74
2022/03/12 10:18:52;;;;;;;1.40;1.20;;;;;;;;;;5034721;28;20011;-74
2022/03/12 10:21:20;;;;;;;1.73;1.45;;;;;;;;;;5031303;28;20387;-74
2022/03/12 10:23:46;;;;;;;1.75;1.40;;;;;;;;;;5034928;28;20021;-74
2022/03/12 10:26:13;;;;;;;1.00;0.93;;;;;;;;;;5035510;28;20024;-74
2022/03/12 10:28:41;;;;;;;1.55;1.35;;;;;;;;;;5032251;28;20029;-74
2022/03/12 10:31:09;;;;;;;1.80;1.60;;;;;;;;;;5033194;28;20036;-74
2022/03/12 10:33:39;;;;;;;4.40;1.60;;;;;;;;;;5033378;28;20023;-74
2022/03/12 10:36:13;;;;;;;2.30;1.80;;;;;;;;;;5030601;28;20029;-73
2022/03/12 10:38:41;;;;;;;5.88;1.80;;;;;;;;;;5044014;28;20025;-75
2022/03/12 10:41:08;;;;;;;3.22;2.13;;;;;;;;;;5041843;28;20071;-74
2022/03/12 10:43:53;;;;;;;2.28;1.80;;;;;;;;;;5038648;28;20040;-73
2022/03/12 10:46:27;;;;;;;2.33;2.00;;;;;;;;;;5034302;28;20025;-73
2022/03/12 10:48:57;;;;;;;2.83;2.13;;;;;;;;;;5032774;28;20576;-73
2022/03/12 10:51:26;;;;;;;1.67;1.50;;;;;;;;;;5031496;28;20425;-73
2022/03/12 10:54:04;;;;;;;3.58;2.17;;;;;;;;;;5032665;28;20028;-74
2022/03/12 10:56:49;;;;;;;3.60;2.30;;;;;;;;;;5035382;28;20029;-73
2022/03/12 10:59:26;;;;;;;3.28;2.53;;;;;;;;;;5035224;28;20027;-73
2022/03/12 11:01:54;;;;;;;3.10;1.75;;;;;;;;;;5034226;28;20026;-73
2022/03/12 11:04:23;;;;;;;3.95;2.17;;;;;;;;;;5033705;28;20445;-74
2022/03/12 11:06:51;;;;;;;3.40;2.30;;;;;;;;;;5031407;28;20103;-73
2022/03/12 11:09:18;;;;;;;2.85;2.10;;;;;;;;;;5028538;28;20044;-73
2022/03/12 11:11:46;;;;;;;5.20;3.28;;;;;;;;;;5034121;28;20033;-73
2022/03/12 11:14:18;;;;;;;3.83;2.60;;;;;;;;;;5034677;28;20033;-73
2022/03/12 11:16:50;;;;;;;3.13;2.40;;;;;;;;;;5033691;28;20025;-73
2022/03/12 11:19:17;;;;;;;4.05;2.10;;;;;;;;;;5033664;28;20521;-73
2022/03/12 11:21:52;;;;;;;2.70;2.20;;;;;;;;;;5033562;28;20029;-73
2022/03/12 11:24:24;;;;;;;3.65;2.80;;;;;;;;;;5030666;28;20433;-73
2022/03/12 11:26:51;;;;;;;3.08;2.47;;;;;;;;;;5032423;28;20498;-73
2022/03/12 11:29:20;;;;;;;2.78;2.10;;;;;;;;;;5035097;28;20029;-73
2022/03/12 11:31:51;;;;;;;3.20;2.25;;;;;;;;;;5033328;28;20037;-73
2022/03/12 11:34:19;;;;;;;3.75;2.60;;;;;;;;;;5033777;28;20028;-74
2022/03/12 11:36:47;;;;;;;3.30;2.05;;;;;;;;;;5033679;28;20029;-73
2022/03/12 11:39:16;;;;;;;5.28;2.78;;;;;;;;;;5028983;28;20033;-73
2022/03/12 11:41:43;;;;;;;5.05;2.38;;;;;;;;;;5046647;28;20037;-73
2022/03/12 11:44:09;;;;;;;3.17;2.38;;;;;;;;;;5032576;28;20445;-73
2022/03/12 11:46:36;;;;;;;5.05;2.53;;;;;;;;;;5031643;28;20044;-73
2022/03/12 11:49:03;;;;;;;5.47;2.22;;;;;;;;;;5030564;28;20025;-73
2022/03/12 11:51:30;;;;;;;3.53;1.52;;;;;;;;;;5031863;28;20029;-73
2022/03/12 11:53:57;;;;;;;4.95;2.58;;;;;;;;;;5030461;28;20498;-73
2022/03/12 11:56:27;;;;;;;5.85;2.20;;;;;;;;;;5035397;28;20029;-72
2022/03/12 11:58:54;;;;;;;4.72;2.35;;;;;;;;;;5033235;28;20020;-73
2022/03/12 12:01:21;;;;;;;2.55;2.08;;;;;;;;;;5032992;28;20119;-72
2022/03/12 12:03:50;;;;;;;4.75;2.30;;;;;;;;;;5033139;28;20021;-72
2022/03/12 12:06:17;;;;;;;3.42;2.63;;;;;;;;;;5029956;28;20025;-72
2022/03/12 12:08:43;;;;;;;5.55;3.05;;;;;;;;;;5034021;28;20067;-71
2022/03/12 12:11:11;;;;;;;6.97;2.05;;;;;;;;;;5032330;28;20043;-72
2022/03/12 12:13:39;;;;;;;10.63;2.78;;;;;;;;;;5033537;28;20033;-72
2022/03/12 12:16:06;;;;;;;8.65;2.30;;;;;;;;;;5032767;28;20022;-72
2022/03/12 12:18:33;;;;;;;4.25;2.97;;;;;;;;;;5031715;28;20013;-70
2022/03/12 12:20:59;;;;;;;5.28;2.40;;;;;;;;;;5030169;28;20052;-72
2022/03/12 12:23:27;;;;;;;4.03;2.53;;;;;;;;;;5035016;28;20025;-72
2022/03/12 12:26:06;;;;;;;8.73;3.45;;;;;;;;;;5031588;28;20040;-72
2022/03/12 12:28:32;;;;;;;5.90;2.88;;;;;;;;;;5031758;28;20047;-72
2022/03/12 12:30:58;;;;;;;3.72;2.30;;;;;;;;;;5032483;28;20128;-72
2022/03/12 12:33:26;;;;;;;3.03;2.28;;;;;;;;;;5033117;28;20029;-72
2022/03/12 12:36:10;;;;;;;2.42;2.10;;;;;;;;;;5034995;28;20512;-72
2022/03/12 12:38:39;;;;;;;6.68;2.60;;;;;;;;;;5077575;28;20021;-72
2022/03/12 12:41:06;;;;;;;2.60;2.00;;;;;;;;;;5044073;28;20041;-72
2022/03/12 12:43:34;;;;;;;3.58;2.38;;;;;;;;;;5039771;28;20051;-71
2022/03/12 12:46:13;;;;;;;3.20;2.63;;;;;;;;;;5036047;28;20031;-72
2022/03/12 12:48:51;;;;;;;4.32;2.47;;;;;;;;;;5035955;28;20029;-72
2022/03/12 12:51:21;;;;;;;4.55;2.53;;;;;;;;;;5017915;28;20036;-72
2022/03/12 12:53:47;;;;;;;6.10;2.80;;;;;;;;;;5035365;28;20025;-72
2022/03/12 12:56:29;;;;;;;5.00;2.85;;;;;;;;;;5037184;28;20082;-72
2022/03/12 12:59:01;;;;;;;3.63;2.17;;;;;;;;;;5035776;28;20036;-72
2022/03/12 13:01:29;;;;;;;7.10;2.45;;;;;;;;;;5035157;28;20106;-72
2022/03/12 13:03:55;;;;;;;3.97;2.30;;;;;;;;;;5034826;28;20528;-72
2022/03/12 13:06:40;;;;;;;4.70;2.75;;;;;;;;;;5032133;28;20022;-73
2022/03/12 13:09:08;;;;;;;5.00;3.00;;;;;;;;;;5031366;28;20014;-72
2022/03/12 13:11:35;;;;;;;8.07;3.17;;;;;;;;;;5038465;28;20042;-72
2022/03/12 13:14:07;;;;;;;4.68;3.17;;;;;;;;;;5035582;28;20494;-72
2022/03/12 13:16:33;;;;;;;;;;;;;;;;;;5036670;28;20037;-72
2022/03/12 13:18:59;;;;;;;5.72;2.97;;;;;;;;;;5035784;28;19909;-72
2022/03/12 13:21:27;;;;;;;9.95;3.00;;;;;;;;;;5033791;28;20032;-72
2022/03/12 13:23:53;;;;;;;3.17;2.72;;;;;;;;;;5034646;28;20029;-72
2022/03/12 13:26:21;;;;;;;7.50;1.80;;;;;;;;;;5037565;28;20039;-72
2022/03/12 13:28:53;;;;;;;2.25;1.50;;;;;;;;;;5035393;28;20478;-72
2022/03/12 13:31:20;;;;;;;5.50;2.33;;;;;;;;;;5035352;28;20518;-72
2022/03/12 13:33:49;;;;;;;3.22;2.47;;;;;;;;;;5035887;28;20044;-72
2022/03/12 13:36:20;;;;;;;2.28;1.45;;;;;;;;;;5031984;28;20361;-73
2022/03/12 13:38:46;;;;;;;2.38;1.63;;;;;;;;;;5035776;28;20383;-72
2022/03/12 13:41:18;;;;;;;2.97;2.03;;;;;;;;;;5044110;28;20041;-73
2022/03/12 13:43:46;;;;;;;1.75;1.35;;;;;;;;;;5036458;28;20033;-73
2022/03/12 13:46:12;;;;;;;2.58;1.90;;;;;;;;;;5032727;28;20029;-72
2022/03/12 13:48:42;;;;;;;6.43;1.75;;;;;;;;;;5034589;28;20029;-73
2022/03/12 13:51:09;;;;;;;3.60;1.67;;;;;;;;;;5030955;28;20538;-72
2022/03/12 13:53:37;;;;;;;2.55;1.77;;;;;;;;;;5036053;28;20532;-72
2022/03/12 13:56:17;;;;;;;1.70;1.38;;;;;;;;;;5035335;28;20021;-72
2022/03/12 13:58:44;;;;;;;3.33;1.50;;;;;;;;;;5033917;28;20107;-72
2022/03/12 14:01:12;;;;;;;4.10;1.83;;;;;;;;;;5035448;28;20025;-72
2022/03/12 14:03:45;;;;;;;1.50;0.90;;;;;;;;;;5034497;28;20009;-72
2022/03/12 14:06:42;;;;;;;1.25;1.15;;;;;;;;;;5015279;28;20252;-72
2022/03/12 14:09:10;;;;;;;1.10;0.60;;;;;;;;;;5030120;28;20052;-72
2022/03/12 14:11:43;;;;;;;1.17;0.38;;;;;;;;;;5035462;28;20037;-72
2022/03/12 14:14:11;;;;;;;0.30;0.30;;;;;;;;;;5033910;28;20029;-72
2022/03/12 14:16:40;;;;;;;0.40;0.30;;;;;;;;;;5035114;28;20022;-72
2022/03/12 14:19:07;;;;;;;1.67;0.50;;;;;;;;;;5034933;28;20031;-72
2022/03/12 14:21:38;;;;;;;0.20;0.20;;;;;;;;;;5032324;28;20017;-72
2022/03/12 14:24:23;;;;;;;0.20;0.20;;;;;;;;;;5030683;28;20491;-72
2022/03/12 14:26:53;;;;;;;0.50;0.50;;;;;;;;;;5044411;28;20029;-72
2022/03/12 14:29:23;;;;;;;0.40;0.32;;;;;;;;;;5036064;28;20029;-72
2022/03/12 14:31:50;;;;;;;0.20;0.20;;;;;;;;;;5034668;28;20030;-72
2022/03/12 14:34:17;;;;;;;0.20;0.20;;;;;;;;;;5034874;28;20030;-72
2022/03/12 14:36:45;;;;;;;1.65;1.05;;;;;;;;;;5034544;28;20020;-71
2022/03/12 14:39:14;;;;;;;1.75;1.05;;;;;;;;;;5030277;28;20022;-72
2022/03/12 14:41:49;;;;;;;1.42;0.77;;;;;;;;;;5042377;28;20053;-72
2022/03/12 14:44:16;;;;;;;2.65;0.77;;;;;;;;;;5035407;28;20397;-72
2022/03/12 14:46:47;;;;;;;1.58;0.80;;;;;;;;;;5034424;28;20494;-72
2022/03/12 14:49:34;;;;;;;0.60;0.50;;;;;;;;;;5034541;28;20234;-72